TimeMDT,TemperatureF,Dew PointF,Humidity,Sea Level PressureIn,VisibilityMPH,Wind Direction,Wind SpeedMPH,Gust SpeedMPH,PrecipitationIn,Events,Conditions,WindDirDegrees,DateUTC
12:53 AM,28.0,25.0,88,30.16,10.0,Calm,Calm,-,N/A,,Clear,0,2013-09-24 06:53:00
1:53 AM,28.0,23.0,81,30.14,10.0,NE,3.5,-,N/A,,Clear,50,2013-09-24 07:53:00
2:53 AM,28.0,23.0,81,30.15,10.0,Calm,Calm,-,N/A,,Clear,0,2013-09-24 08:53:00
3:53 AM,26.1,21.9,84,30.15,10.0,Calm,Calm,-,N/A,,Clear,0,2013-09-24 09:53:00
4:53 AM,25.0,21.0,85,30.16,10.0,Calm,Calm,-,N/A,,Clear,0,2013-09-24 10:53:00
5:53 AM,24.1,19.9,84,30.19,10.0,ENE,5.8,-,N/A,,Clear,60,2013-09-24 11:53:00
6:53 AM,23.0,19.9,88,30.22,10.0,NNE,3.5,-,N/A,,Clear,20,2013-09-24 12:53:00
7:53 AM,25.0,19.9,81,30.26,10.0,NNE,5.8,-,N/A,,Clear,30,2013-09-24 13:53:00
8:53 AM,32.0,24.1,73,30.22,10.0,NE,3.5,-,N/A,,Clear,40,2013-09-24 14:53:00
9:53 AM,39.9,21.9,49,30.16,10.0,Calm,Calm,-,N/A,,Clear,0,2013-09-24 15:53:00
10:53 AM,46.0,18.0,33,30.13,10.0,Calm,Calm,-,N/A,,Clear,0,2013-09-24 16:53:00
11:53 AM,52.0,12.0,20,30.05,10.0,Calm,Calm,-,N/A,,Clear,0,2013-09-24 17:53:00
12:53 PM,55.9,8.1,15,30.02,10.0,Variable,3.5,-,N/A,,Clear,0,2013-09-24 18:53:00
1:53 PM,57.0,10.0,15,29.97,10.0,SSE,8.1,-,N/A,,Clear,150,2013-09-24 19:53:00
2:53 PM,60.1,6.1,12,29.94,10.0,Variable,5.8,17.3,N/A,,Clear,0,2013-09-24 20:53:00
3:53 PM,57.9,8.1,14,29.96,10.0,SSW,9.2,20.7,N/A,,Clear,210,2013-09-24 21:53:00
4:53 PM,57.9,10.9,16,29.96,10.0,Variable,6.9,-,N/A,,Clear,0,2013-09-24 22:53:00
5:53 PM,57.0,8.1,14,29.96,10.0,SW,8.1,-,N/A,,Clear,230,2013-09-24 23:53:00
6:53 PM,50.0,10.9,21,30.00,10.0,West,4.6,-,N/A,,Clear,270,2013-09-25 00:53:00
7:53 PM,45.0,9.0,23,30.02,10.0,East,6.9,-,N/A,,Clear,90,2013-09-25 01:53:00
8:53 PM,39.0,17.1,41,30.01,10.0,NE,3.5,-,N/A,,Clear,40,2013-09-25 02:53:00
9:53 PM,37.9,17.1,43,29.96,10.0,Calm,Calm,-,N/A,,Clear,0,2013-09-25 03:53:00
10:53 PM,37.9,19.9,48,29.90,10.0,East,4.6,-,N/A,,Clear,80,2013-09-25 04:53:00
11:53 PM,30.9,21.9,69,29.88,10.0,Variable,4.6,-,N/A,,Clear,0,2013-09-25 05:53:00